createdAt,value
2022-11-03T00:02:00.926Z,3.90
2022-11-03T00:04:28.011Z,4.10
2022-11-03T00:06:56.309Z,3.67
2022-11-03T00:09:24.360Z,3.30
2022-11-03T00:11:52.103Z,3.53
2022-11-03T00:14:19.425Z,3.27
2022-11-03T00:16:46.542Z,2.90
2022-11-03T00:19:16.232Z,3.30
2022-11-03T00:21:43.103Z,3.50
2022-11-03T00:24:10.091Z,3.50
2022-11-03T00:26:37.357Z,2.50
2022-11-03T00:29:13.039Z,3.80
2022-11-03T00:31:41.451Z,3.43
2022-11-03T00:34:09.052Z,3.43
2022-11-03T00:36:41.503Z,2.93
2022-11-03T00:39:08.934Z,3.47
2022-11-03T00:41:36.218Z,3.60
2022-11-03T00:44:03.023Z,2.33
2022-11-03T00:46:36.119Z,3.00
2022-11-03T00:49:04.491Z,3.40
2022-11-03T00:51:31.806Z,2.80
2022-11-03T00:54:00.623Z,2.57
2022-11-03T00:56:34.917Z,2.43
2022-11-03T00:59:03.166Z,2.43
2022-11-03T01:01:42.131Z,2.60
2022-11-03T01:04:28.454Z,2.80
2022-11-03T01:06:58.034Z,2.50
2022-11-03T01:09:38.947Z,3.00
2022-11-03T01:12:08.541Z,2.33
2022-11-03T01:14:44.360Z,2.30
2022-11-03T01:17:19.903Z,2.50
2022-11-03T01:19:47.198Z,2.07
2022-11-03T01:22:15.587Z,2.40
2022-11-03T01:24:43.176Z,2.07
2022-11-03T01:27:13.390Z,2.17
2022-11-03T01:29:40.566Z,2.13
2022-11-03T01:32:08.827Z,2.50
2022-11-03T01:34:36.481Z,2.27
2022-11-03T01:37:03.478Z,3.10
2022-11-03T01:39:30.291Z,3.13
2022-11-03T01:41:57.398Z,2.38
2022-11-03T01:44:27.927Z,2.50
2022-11-03T01:47:15.586Z,2.43
2022-11-03T01:49:55.010Z,3.27
2022-11-03T01:52:38.950Z,2.50
2022-11-03T01:55:26.484Z,2.97
2022-11-03T01:58:02.052Z,3.87
2022-11-03T02:00:28.831Z,3.70
2022-11-03T02:02:56.025Z,2.97
2022-11-03T02:05:26.203Z,3.07
2022-11-03T02:07:55.992Z,3.00
2022-11-03T02:10:24.724Z,3.13
2022-11-03T02:12:51.844Z,2.83
2022-11-03T02:15:21.755Z,3.37
2022-11-03T02:17:50.896Z,3.30
2022-11-03T02:20:24.860Z,3.47
2022-11-03T02:22:51.576Z,4.03
2022-11-03T02:25:42.339Z,3.73
2022-11-03T02:28:10.323Z,3.27
2022-11-03T02:30:56.036Z,4.17
2022-11-03T02:34:01.440Z,4.87
2022-11-03T02:36:48.971Z,4.57
2022-11-03T02:39:22.712Z,4.53
2022-11-03T02:41:52.820Z,4.23
2022-11-03T02:44:20.795Z,4.28
2022-11-03T02:46:52.719Z,4.37
2022-11-03T02:49:19.516Z,3.87
2022-11-03T02:51:46.348Z,5.03
2022-11-03T02:54:22.296Z,4.97
2022-11-03T02:57:06.591Z,4.43
2022-11-03T02:59:43.055Z,4.53
2022-11-03T03:02:15.883Z,5.07
2022-11-03T03:04:53.661Z,4.00
2022-11-03T03:07:27.185Z,4.40
2022-11-03T03:09:59.803Z,4.10
2022-11-03T03:12:27.443Z,4.10
2022-11-03T03:14:58.305Z,4.65
2022-11-03T03:17:52.666Z,4.60
2022-11-03T03:20:40.320Z,4.30
2022-11-03T03:23:19.227Z,4.43
2022-11-03T03:25:53.442Z,4.05
2022-11-03T03:28:26.199Z,5.13
2022-11-03T03:30:58.031Z,4.40
2022-11-03T03:36:01.752Z,3.72
2022-11-03T03:38:37.081Z,4.77
2022-11-03T03:41:10.408Z,4.87
2022-11-03T03:43:38.146Z,4.30
2022-11-03T03:46:10.247Z,4.70
2022-11-03T03:48:37.538Z,5.63
2022-11-03T03:51:06.649Z,4.20
2022-11-03T03:53:33.572Z,4.40
2022-11-03T03:56:00.527Z,5.00
2022-11-03T03:58:27.336Z,5.47
2022-11-03T04:00:54.418Z,5.13
2022-11-03T04:03:23.782Z,4.30
2022-11-03T04:05:51.636Z,4.72
2022-11-03T04:08:18.634Z,4.20
2022-11-03T04:11:05.067Z,5.00
2022-11-03T04:13:51.806Z,3.93
2022-11-03T04:16:37.760Z,4.38
2022-11-03T04:19:23.142Z,4.25
2022-11-03T04:22:08.492Z,4.45
2022-11-03T04:24:35.347Z,4.22
2022-11-03T04:27:16.872Z,4.35
2022-11-03T04:29:43.875Z,4.82
2022-11-03T04:32:17.231Z,5.25
2022-11-03T04:34:47.220Z,3.83
2022-11-03T04:37:14.556Z,4.25
2022-11-03T04:39:41.970Z,4.53
2022-11-03T04:42:21.159Z,3.95
2022-11-03T04:44:49.218Z,5.03
2022-11-03T04:47:17.840Z,5.25
2022-11-03T04:49:46.851Z,4.82
2022-11-03T04:52:21.945Z,4.32
2022-11-03T04:54:53.004Z,4.25
2022-11-03T04:57:20.131Z,4.93
2022-11-03T04:59:51.161Z,4.30
2022-11-03T05:02:20.257Z,4.50
2022-11-03T05:04:47.321Z,4.25
2022-11-03T05:07:30.966Z,4.95
2022-11-03T05:09:58.137Z,4.40
2022-11-03T05:12:25.662Z,5.03
2022-11-03T05:14:58.022Z,4.22
2022-11-03T05:17:27.759Z,4.05
2022-11-03T05:20:01.390Z,4.50
2022-11-03T05:22:37.141Z,4.20
2022-11-03T05:25:35.563Z,4.82
2022-11-03T05:28:03.292Z,4.68
2022-11-03T05:30:30.828Z,4.23
2022-11-03T05:32:58.375Z,4.68
2022-11-03T05:35:25.287Z,4.78
2022-11-03T05:37:52.323Z,4.95
2022-11-03T05:40:25.522Z,3.90
2022-11-03T05:42:57.550Z,4.93
2022-11-03T05:45:31.111Z,4.72
2022-11-03T05:47:58.869Z,4.10
2022-11-03T05:50:28.828Z,4.18
2022-11-03T05:52:59.232Z,3.65
2022-11-03T05:55:30.480Z,4.22
2022-11-03T05:58:00.252Z,4.40
2022-11-03T06:00:41.885Z,4.28
2022-11-03T06:03:21.604Z,4.47
2022-11-03T06:05:48.501Z,4.70
2022-11-03T06:08:20.668Z,4.50
2022-11-03T06:10:51.330Z,3.47
2022-11-03T06:13:26.819Z,3.95
2022-11-03T06:16:25.521Z,4.28
2022-11-03T06:18:52.343Z,4.45
2022-11-03T06:21:25.857Z,3.65
2022-11-03T06:23:54.863Z,3.85
2022-11-03T06:26:25.618Z,4.38
2022-11-03T06:28:53.099Z,4.30
2022-11-03T06:31:32.757Z,3.77
2022-11-03T06:33:59.604Z,5.05
2022-11-03T06:36:35.274Z,4.53
2022-11-03T06:39:32.086Z,3.88
2022-11-03T06:41:58.914Z,4.00
2022-11-03T06:44:28.423Z,5.05
2022-11-03T06:46:59.987Z,4.78
2022-11-03T06:49:35.105Z,4.90
2022-11-03T06:52:30.938Z,4.10
2022-11-03T06:55:12.171Z,4.90
2022-11-03T06:57:44.518Z,4.63
2022-11-03T07:00:41.085Z,4.60
2022-11-03T07:03:18.541Z,4.13
2022-11-03T07:05:45.531Z,4.60
2022-11-03T07:08:32.866Z,3.87
2022-11-03T07:11:19.854Z,4.38
2022-11-03T07:13:53.628Z,4.32
2022-11-03T07:16:35.137Z,4.50
2022-11-03T07:19:05.981Z,4.80
2022-11-03T07:21:45.342Z,4.60
2022-11-03T07:24:36.486Z,4.88
2022-11-03T07:27:16.349Z,4.77
2022-11-03T07:29:44.843Z,4.07
2022-11-03T07:32:23.963Z,5.20
2022-11-03T07:34:53.683Z,5.20
2022-11-03T07:37:24.389Z,5.07
2022-11-03T07:39:53.095Z,5.80
2022-11-03T07:42:23.284Z,5.57
2022-11-03T07:44:50.695Z,5.30
2022-11-03T07:47:26.086Z,4.73
2022-11-03T07:49:55.109Z,5.72
2022-11-03T07:52:24.823Z,6.70
2022-11-03T07:54:55.053Z,4.63
2022-11-03T07:57:32.092Z,5.30
2022-11-03T08:00:08.823Z,4.50
2022-11-03T08:02:46.813Z,5.82
2022-11-03T08:05:13.883Z,4.87
2022-11-03T08:07:40.716Z,4.83
2022-11-03T08:10:07.974Z,4.73
2022-11-03T08:12:34.772Z,5.30
2022-11-03T08:15:01.671Z,4.87
2022-11-03T08:17:28.483Z,4.30
2022-11-03T08:19:55.331Z,5.20
2022-11-03T08:22:25.867Z,4.70
2022-11-03T08:24:53.226Z,4.90
2022-11-03T08:27:20.127Z,4.80
2022-11-03T08:29:47.191Z,4.90
2022-11-03T08:32:14.095Z,4.65
2022-11-03T08:34:40.983Z,5.18
2022-11-03T08:37:07.788Z,4.07
2022-11-03T08:39:36.265Z,4.47
2022-11-03T08:42:03.188Z,4.23
2022-11-03T08:44:30.050Z,5.73
2022-11-03T08:46:57.023Z,5.07
2022-11-03T08:49:23.968Z,3.80
2022-11-03T08:51:50.803Z,5.07
2022-11-03T08:54:17.633Z,3.93
2022-11-03T08:56:46.585Z,4.33
2022-11-03T08:59:13.676Z,3.80
2022-11-03T09:01:40.631Z,4.53
2022-11-03T09:04:07.819Z,3.93
2022-11-03T09:06:34.697Z,3.10
2022-11-03T09:11:48.495Z,4.17
2022-11-03T09:14:16.048Z,3.73
2022-11-03T09:16:42.970Z,3.60
2022-11-03T09:19:09.772Z,5.00
2022-11-03T09:21:36.577Z,3.73
2022-11-03T09:24:03.466Z,3.87
2022-11-03T09:26:30.391Z,3.73
2022-11-03T09:28:57.165Z,3.37
2022-11-03T09:31:28.348Z,2.80
2022-11-03T09:33:55.277Z,3.07
2022-11-03T09:36:22.135Z,3.27
2022-11-03T09:38:49.009Z,3.03
2022-11-03T09:41:26.215Z,3.70
2022-11-03T09:43:56.699Z,2.30
2022-11-03T09:46:23.856Z,3.27
2022-11-03T09:48:50.861Z,2.90
2022-11-03T09:51:20.916Z,2.60
2022-11-03T09:53:48.450Z,2.87
2022-11-03T09:56:19.110Z,2.73
2022-11-03T09:58:51.273Z,2.80
2022-11-03T10:01:21.010Z,3.40
2022-11-03T10:03:48.265Z,2.73
2022-11-03T10:06:17.187Z,2.40
2022-11-03T10:08:46.347Z,2.90
2022-11-03T10:11:13.773Z,3.00
2022-11-03T10:13:43.732Z,2.50
2022-11-03T10:16:14.935Z,2.00
2022-11-03T10:18:42.742Z,2.33
2022-11-03T10:21:18.076Z,2.23
2022-11-03T10:23:45.012Z,2.20
2022-11-03T10:26:16.497Z,2.50
2022-11-03T10:29:03.728Z,2.10
2022-11-03T10:31:41.235Z,2.13
2022-11-03T10:34:27.025Z,2.30
2022-11-03T10:37:17.622Z,2.97
2022-11-03T10:39:45.464Z,2.20
2022-11-03T10:42:35.744Z,2.17
2022-11-03T10:45:15.512Z,2.00
2022-11-03T10:47:42.288Z,2.30
2022-11-03T10:50:26.898Z,2.20
2022-11-03T10:52:54.630Z,2.10
2022-11-03T10:55:25.268Z,2.73
2022-11-03T10:57:55.733Z,2.60
2022-11-03T11:00:24.073Z,2.23
2022-11-03T11:02:58.949Z,2.07
2022-11-03T11:05:26.452Z,2.10
2022-11-03T11:07:54.508Z,1.80
2022-11-03T11:10:27.152Z,3.10
2022-11-03T11:13:27.575Z,1.50
2022-11-03T11:16:02.072Z,2.20
2022-11-03T11:18:28.844Z,2.33
2022-11-03T11:21:15.881Z,1.47
2022-11-03T11:23:44.582Z,2.60
2022-11-03T11:26:16.039Z,1.53
2022-11-03T11:28:45.524Z,2.00
2022-11-03T11:31:29.136Z,1.80
2022-11-03T11:34:12.270Z,1.73
2022-11-03T11:36:44.936Z,2.23
2022-11-03T11:39:20.523Z,1.50
2022-11-03T11:42:18.816Z,1.40
2022-11-03T11:44:54.760Z,2.03
2022-11-03T11:47:26.045Z,1.50
2022-11-03T11:50:12.286Z,1.90
2022-11-03T11:52:50.396Z,1.80
2022-11-03T11:55:38.657Z,2.10
2022-11-03T11:58:14.112Z,1.20
2022-11-03T12:00:52.965Z,2.90
2022-11-03T12:03:32.366Z,1.60
2022-11-03T12:05:59.244Z,1.50
2022-11-03T12:08:29.810Z,1.73
2022-11-03T12:10:59.142Z,1.37
2022-11-03T12:13:49.363Z,1.57
2022-11-03T12:16:33.074Z,1.40
2022-11-03T12:19:37.354Z,1.50
2022-11-03T12:22:06.629Z,1.87
2022-11-03T12:24:33.399Z,1.47
2022-11-03T12:27:01.170Z,1.97
2022-11-03T12:29:31.097Z,1.40
2022-11-03T12:31:57.853Z,2.20
2022-11-03T12:34:24.695Z,1.60
2022-11-03T12:36:55.945Z,1.93
2022-11-03T12:39:23.185Z,2.10
2022-11-03T12:41:49.979Z,1.63
2022-11-03T12:44:16.962Z,1.90
2022-11-03T12:46:43.823Z,1.70
2022-11-03T12:49:10.636Z,2.30
2022-11-03T12:51:37.511Z,1.63
2022-11-03T12:54:04.442Z,2.47
2022-11-03T12:56:31.224Z,1.97
2022-11-03T12:58:57.976Z,2.30
2022-11-03T13:01:25.269Z,1.63
2022-11-03T13:03:52.185Z,1.83
2022-11-03T13:06:18.971Z,2.27
2022-11-03T13:08:47.879Z,2.27
2022-11-03T13:11:36.249Z,1.47
2022-11-03T13:14:04.982Z,1.80
2022-11-03T13:16:32.220Z,1.60
2022-11-03T13:18:59.009Z,1.70
2022-11-03T13:21:25.900Z,1.57
2022-11-03T13:23:53.431Z,1.60
2022-11-03T13:26:20.288Z,1.50
2022-11-03T13:28:47.638Z,2.17
2022-11-03T13:31:14.390Z,2.30
2022-11-03T13:33:41.158Z,2.53
2022-11-03T13:36:08.265Z,1.60
2022-11-03T13:38:35.104Z,2.03
2022-11-03T13:41:08.135Z,2.10
2022-11-03T13:43:35.988Z,1.70
2022-11-03T13:46:03.968Z,1.30
2022-11-03T13:49:31.767Z,1.30
2022-11-03T13:51:19.099Z,1.10
2022-11-03T13:59:27.498Z,1.90
2022-11-03T14:04:42.216Z,1.67
2022-11-03T14:07:10.002Z,2.27
2022-11-03T14:12:22.329Z,1.90
2022-11-03T14:14:49.077Z,1.63
2022-11-03T14:17:16.013Z,1.70
2022-11-03T14:19:46.171Z,1.37
2022-11-03T14:22:15.705Z,2.20
2022-11-03T14:24:42.603Z,1.97
2022-11-03T14:27:09.480Z,1.80
2022-11-03T14:29:36.357Z,1.70
2022-11-03T14:32:03.214Z,1.43
2022-11-03T14:34:30.034Z,1.47
2022-11-03T14:36:57.079Z,1.73
2022-11-03T14:39:23.872Z,1.77
2022-11-03T14:42:05.987Z,2.17
2022-11-03T14:44:37.040Z,2.10
2022-11-03T14:47:06.020Z,1.77
2022-11-03T14:49:34.312Z,1.23
2022-11-03T14:52:02.380Z,1.47
2022-11-03T14:54:30.642Z,1.40
2022-11-03T14:56:58.176Z,1.27
2022-11-03T14:59:25.789Z,2.00
2022-11-03T15:01:53.556Z,1.30
2022-11-03T15:04:21.395Z,2.03
2022-11-03T15:06:49.040Z,1.93
2022-11-03T15:09:15.942Z,1.83
2022-11-03T15:11:43.871Z,1.53
2022-11-03T15:14:11.965Z,1.40
2022-11-03T15:16:39.240Z,1.53
2022-11-03T15:19:07.163Z,2.10
2022-11-03T15:21:34.000Z,1.80
2022-11-03T15:26:48.041Z,1.60
2022-11-03T15:29:14.907Z,1.40
2022-11-03T15:31:46.390Z,1.60
2022-11-03T15:34:15.405Z,2.03
2022-11-03T15:36:42.473Z,2.50
2022-11-03T15:39:09.593Z,2.20
2022-11-03T15:41:36.407Z,1.90
2022-11-03T15:44:03.377Z,2.30
2022-11-03T15:46:30.187Z,1.80
2022-11-03T15:48:57.783Z,1.93
2022-11-03T15:51:25.368Z,1.70
2022-11-03T15:53:57.924Z,1.03
2022-11-03T15:56:25.795Z,1.60
2022-11-03T15:58:52.570Z,2.00
2022-11-03T16:01:19.418Z,1.93
2022-11-03T16:03:46.336Z,1.50
2022-11-03T16:06:13.166Z,2.37
2022-11-03T16:08:40.030Z,1.60
2022-11-03T16:11:07.141Z,1.50
2022-11-03T16:13:33.939Z,1.85
2022-11-03T16:16:00.706Z,2.03
2022-11-03T16:18:27.594Z,1.80
2022-11-03T16:20:54.354Z,2.47
2022-11-03T16:23:21.181Z,2.17
2022-11-03T16:25:47.936Z,3.53
2022-11-03T16:28:14.703Z,1.83
2022-11-03T16:30:41.599Z,3.10
2022-11-03T16:33:08.883Z,2.70
2022-11-03T16:35:35.674Z,2.15
2022-11-03T16:38:02.507Z,2.30
2022-11-03T16:40:29.478Z,1.90
2022-11-03T16:42:56.228Z,2.08
2022-11-03T16:45:26.626Z,2.67
2022-11-03T16:47:54.116Z,2.30
2022-11-03T16:50:20.916Z,2.40
2022-11-03T16:52:49.395Z,2.20
2022-11-03T16:55:17.704Z,2.65
2022-11-03T16:57:45.619Z,2.60
2022-11-03T17:00:15.721Z,3.13
2022-11-03T17:02:42.675Z,2.80
2022-11-03T17:05:10.399Z,3.20
2022-11-03T17:07:37.235Z,4.13
2022-11-03T17:10:05.866Z,4.82
2022-11-03T17:12:32.723Z,5.85
2022-11-03T17:14:59.618Z,5.20
2022-11-03T17:17:26.457Z,6.77
2022-11-03T17:19:53.359Z,8.53
2022-11-03T17:22:22.860Z,10.10
2022-11-03T17:24:50.463Z,9.57
2022-11-03T17:27:25.578Z,11.43
2022-11-03T17:30:09.019Z,11.60
2022-11-03T17:32:41.854Z,12.07
2022-11-03T17:35:18.937Z,13.50
2022-11-03T17:37:45.782Z,12.18
2022-11-03T17:40:21.735Z,10.90
2022-11-03T17:42:49.428Z,10.98
2022-11-03T17:45:18.580Z,11.25
2022-11-03T17:47:45.589Z,8.90
2022-11-03T17:50:17.959Z,9.60
2022-11-03T17:52:46.586Z,9.93
2022-11-03T17:55:25.310Z,10.50
2022-11-03T17:57:52.400Z,12.50
2022-11-03T18:00:21.020Z,12.68
2022-11-03T18:02:50.575Z,12.03
2022-11-03T18:05:20.443Z,12.70
2022-11-03T18:07:49.591Z,13.00
2022-11-03T18:10:16.565Z,12.17
2022-11-03T18:13:05.079Z,11.55
2022-11-03T18:15:33.590Z,11.30
2022-11-03T18:18:01.648Z,12.50
2022-11-03T18:20:29.976Z,12.55
2022-11-03T18:23:15.683Z,10.40
2022-11-03T18:25:42.707Z,11.80
2022-11-03T18:28:09.716Z,11.50
2022-11-03T18:30:37.713Z,10.80
2022-11-03T18:33:05.067Z,10.30
2022-11-03T18:35:34.348Z,10.13
2022-11-03T18:38:01.326Z,9.73
2022-11-03T18:40:30.500Z,10.48
2022-11-03T18:42:57.439Z,9.93
2022-11-03T18:45:24.223Z,10.30
2022-11-03T18:47:52.096Z,11.37
2022-11-03T18:50:19.093Z,9.57
2022-11-03T18:52:48.103Z,12.50
2022-11-03T18:55:17.047Z,10.80
2022-11-03T18:57:44.423Z,10.45
2022-11-03T19:00:16.326Z,11.70
2022-11-03T19:02:43.158Z,11.18
2022-11-03T19:05:13.702Z,10.80
2022-11-03T19:07:42.648Z,10.90
2022-11-03T19:10:21.015Z,10.20
2022-11-03T19:12:48.229Z,10.25
2022-11-03T19:15:23.889Z,10.70
2022-11-03T19:17:56.962Z,10.40
2022-11-03T19:20:25.516Z,10.47
2022-11-03T19:22:52.831Z,11.63
2022-11-03T19:25:19.694Z,10.77
2022-11-03T19:27:49.076Z,10.95
2022-11-03T19:30:18.549Z,10.02
2022-11-03T19:32:51.166Z,11.90
2022-11-03T19:35:30.029Z,11.18
2022-11-03T19:38:13.013Z,11.60
2022-11-03T19:41:00.794Z,11.38
2022-11-03T19:43:33.314Z,11.20
2022-11-03T19:46:01.466Z,10.50
2022-11-03T19:48:33.175Z,10.95
2022-11-03T19:51:00.038Z,11.48
2022-11-03T19:53:29.077Z,10.02
2022-11-03T19:55:56.515Z,10.32
2022-11-03T19:58:28.102Z,9.95
2022-11-03T20:00:55.369Z,9.85
2022-11-03T20:03:23.389Z,11.02
2022-11-03T20:05:56.892Z,10.30
2022-11-03T20:08:26.128Z,10.95
2022-11-03T20:10:53.652Z,11.98
2022-11-03T20:13:23.801Z,10.23
2022-11-03T20:15:57.355Z,11.90
2022-11-03T20:18:26.420Z,10.18
2022-11-03T20:20:54.084Z,10.98
2022-11-03T20:23:33.030Z,10.27
2022-11-03T20:26:01.278Z,10.68
2022-11-03T20:28:35.802Z,9.88
2022-11-03T20:31:04.284Z,11.25
2022-11-03T20:33:33.474Z,10.50
2022-11-03T20:36:02.237Z,10.73
2022-11-03T20:38:29.335Z,10.77
2022-11-03T20:41:00.355Z,10.25
2022-11-03T20:43:40.093Z,10.05
2022-11-03T20:46:31.316Z,11.77
2022-11-03T20:48:58.413Z,11.57
2022-11-03T20:51:33.740Z,12.25
2022-11-03T20:54:02.515Z,10.40
2022-11-03T20:56:29.950Z,12.20
2022-11-03T20:58:57.961Z,10.68
2022-11-03T21:01:30.867Z,12.73
2022-11-03T21:04:00.326Z,11.18
2022-11-03T21:06:30.310Z,12.40
2022-11-03T21:08:57.715Z,11.48
2022-11-03T21:11:28.016Z,11.88
2022-11-03T21:14:08.482Z,11.43
2022-11-03T21:16:53.754Z,11.88
2022-11-03T21:19:40.506Z,11.57
2022-11-03T21:22:54.179Z,10.82
2022-11-03T21:25:23.384Z,10.68
2022-11-03T21:27:50.741Z,10.65
2022-11-03T21:30:18.329Z,9.70
2022-11-03T21:32:45.501Z,10.52
2022-11-03T21:35:19.489Z,10.63
2022-11-03T21:37:47.105Z,9.93
2022-11-03T21:40:14.039Z,10.60
2022-11-03T21:42:59.293Z,10.68
2022-11-03T21:45:26.477Z,9.57
2022-11-03T21:48:14.088Z,10.15
2022-11-03T21:50:41.995Z,10.05
2022-11-03T21:53:09.356Z,10.52
2022-11-03T21:55:36.699Z,10.73
2022-11-03T21:58:04.353Z,10.90
2022-11-03T22:00:31.561Z,9.70
2022-11-03T22:02:59.329Z,9.70
2022-11-03T22:05:26.636Z,9.10
2022-11-03T22:07:53.632Z,8.30
2022-11-03T22:10:20.666Z,10.40
2022-11-03T22:12:54.506Z,10.60
2022-11-03T22:15:39.647Z,9.77
2022-11-03T22:18:07.297Z,9.45
2022-11-03T22:20:55.633Z,10.43
2022-11-03T22:23:40.999Z,10.23
2022-11-03T22:26:31.467Z,9.13
2022-11-03T22:29:28.697Z,9.07
2022-11-03T22:31:55.516Z,11.18
2022-11-03T22:34:41.159Z,9.95
2022-11-03T22:37:08.062Z,8.63
2022-11-03T22:39:53.828Z,9.15
2022-11-03T22:42:39.304Z,9.30
2022-11-03T22:45:25.332Z,9.02
2022-11-03T22:47:57.262Z,8.60
2022-11-03T22:50:24.462Z,9.63
2022-11-03T22:52:51.557Z,8.90
2022-11-03T22:55:18.421Z,8.48
2022-11-03T22:57:45.202Z,8.90
2022-11-03T23:00:13.539Z,7.97
2022-11-03T23:02:40.659Z,8.93
2022-11-03T23:05:07.927Z,9.38
2022-11-03T23:07:40.831Z,9.70
2022-11-03T23:10:08.781Z,9.63
2022-11-03T23:12:35.616Z,8.88
2022-11-03T23:15:20.992Z,8.50
2022-11-03T23:18:08.033Z,8.43
2022-11-03T23:20:56.741Z,8.35
2022-11-03T23:23:42.198Z,9.15
2022-11-03T23:26:09.513Z,8.25
2022-11-03T23:28:36.370Z,7.47
2022-11-03T23:31:03.183Z,7.82
2022-11-03T23:33:31.122Z,8.30
2022-11-03T23:35:58.247Z,8.65
2022-11-03T23:38:25.043Z,7.93
2022-11-03T23:40:51.955Z,7.88
2022-11-03T23:43:18.730Z,8.15
2022-11-03T23:46:04.006Z,9.05
2022-11-03T23:48:46.000Z,8.43
2022-11-03T23:51:21.143Z,8.32
2022-11-03T23:53:48.203Z,8.80
2022-11-03T23:56:36.079Z,8.23
2022-11-03T23:59:03.850Z,7.28
